Terminal Aerodrome Forecast
Issued by NWS

Home | Current Version | Previous Version | Text Only | Print | Product List | Glossary On
Versions: 1 2 3 4 5 6 7 8 9 10 11 12 13 14 15 16 17 18 19 20 21 22 23 24 25 26
000
FTUS44 KTSA 251100
TAFFYV
TAF
KFYV 251134Z 2512/2612 00000KT P6SM FEW026
      TEMPO 2512/2515 4SM BR OVC015
     FM251500 19013KT P6SM OVC015
     FM251800 18011KT P6SM OVC030
      TEMPO 2520/2524 2SM TSRA BKN030CB
     FM260300 13004KT P6SM OVC250
     FM260600 19004KT P6SM OVC050
     FM260900 17002KT 6SM BR OVC004=

USA.gov is the U.S. government's official web portal to all federal, state and local government web resources and services.